Time;durP1;ratioP1;P1;durP2;ratioP2;P2;SDS_P1;SDS_P2;PMS_P1;PMS_P2;Temp;Humidity;BMP_temperature;BMP_pressure;BME280_temperature;BME280_humidity;BME280_pressure;Samples;Min_cycle;Max_cycle;Signal;HPM_P1;HPM_P2
2022/11/23 00:01:23;;;;;;;26.80;17.25;;;6.90;99.90;;;;;;5017451;28;20029;-56
2022/11/23 00:03:51;;;;;;;22.33;17.02;;;7.00;99.90;;;;;;5050568;28;20652;-56
2022/11/23 00:06:18;;;;;;;22.10;16.40;;;8.30;99.90;;;;;;5018829;28;20045;-57
2022/11/23 00:08:44;;;;;;;26.30;16.48;;;8.30;99.90;;;;;;5020867;28;20314;-56
2022/11/23 00:11:10;;;;;;;22.10;16.17;;;7.10;99.90;;;;;;5019799;28;20037;-56
2022/11/23 00:13:38;;;;;;;26.27;15.75;;;7.00;99.90;;;;;;5017238;28;20148;-56
2022/11/23 00:16:08;;;;;;;21.25;15.05;;;7.00;99.90;;;;;;5018140;28;20232;-57
2022/11/23 00:18:34;;;;;;;25.65;16.38;;;7.10;99.90;;;;;;5019770;28;20042;-56
2022/11/23 00:21:08;;;;;;;24.25;15.75;;;7.20;99.90;;;;;;5018713;28;20041;-56
2022/11/23 00:23:34;;;;;;;21.13;15.35;;;7.10;99.90;;;;;;5016512;28;20502;-56
2022/11/23 00:26:00;;;;;;;20.33;15.45;;;7.00;99.90;;;;;;5017305;28;20582;-56
2022/11/23 00:28:26;;;;;;;24.52;15.07;;;7.20;99.90;;;;;;5019669;28;20098;-57
2022/11/23 00:30:52;;;;;;;23.67;15.05;;;7.10;99.90;;;;;;5016102;28;20045;-54
2022/11/23 00:33:17;;;;;;;24.80;15.82;;;7.40;99.90;;;;;;5019143;28;20037;-57
2022/11/23 00:35:43;;;;;;;26.20;15.32;;;8.10;99.90;;;;;;5017645;28;20049;-56
2022/11/23 00:38:09;;;;;;;19.80;15.15;;;7.10;99.90;;;;;;5020903;28;20405;-56
2022/11/23 00:40:35;;;;;;;23.77;14.65;;;7.70;99.90;;;;;;5016914;28;20037;-56
2022/11/23 00:43:01;;;;;;;19.85;13.32;;;7.20;99.90;;;;;;5016159;28;20041;-57
2022/11/23 00:45:26;;;;;;;21.60;14.60;;;7.00;99.90;;;;;;5019149;28;20079;-56
2022/11/23 00:47:52;;;;;;;21.38;14.75;;;7.20;99.90;;;;;;5017412;28;20038;-56
2022/11/23 00:50:18;;;;;;;22.10;14.90;;;9.00;99.90;;;;;;5017709;28;20080;-56
2022/11/23 00:52:43;;;;;;;19.88;14.60;;;7.10;99.90;;;;;;5016797;28;20038;-57
2022/11/23 00:55:09;;;;;;;22.40;14.98;;;7.70;99.90;;;;;;5015465;28;20056;-57
2022/11/23 00:57:35;;;;;;;24.50;15.00;;;7.10;99.90;;;;;;5017403;28;21295;-56
2022/11/23 01:00:01;;;;;;;22.55;14.32;;;8.10;99.90;;;;;;5018254;28;20026;-56
2022/11/23 01:02:26;;;;;;;20.65;13.88;;;7.30;99.90;;;;;;5014798;28;20052;-56
2022/11/23 01:04:52;;;;;;;23.25;14.88;;;7.20;99.90;;;;;;5014014;28;20434;-56
2022/11/23 01:07:18;;;;;;;22.92;14.82;;;7.30;99.90;;;;;;5016156;28;20057;-57
2022/11/23 01:09:44;;;;;;;20.13;14.20;;;7.90;99.90;;;;;;5019297;28;20069;-56
2022/11/23 01:12:09;;;;;;;24.95;14.95;;;7.70;99.90;;;;;;5016910;28;20049;-57
2022/11/23 01:14:35;;;;;;;21.45;14.90;;;8.30;99.90;;;;;;5015201;28;20396;-56
2022/11/23 01:17:01;;;;;;;20.50;13.52;;;7.70;99.90;;;;;;5015353;28;20138;-57
2022/11/23 01:19:26;;;;;;;25.05;14.68;;;7.30;99.90;;;;;;5016805;28;20041;-56
2022/11/23 01:21:52;;;;;;;20.50;13.60;;;8.30;99.90;;;;;;5016330;28;20182;-56
2022/11/23 01:24:22;;;;;;;19.52;13.48;;;8.40;99.90;;;;;;5016880;28;20048;-56
2022/11/23 01:26:54;;;;;;;23.13;13.77;;;7.30;99.90;;;;;;5016991;28;20045;-56
2022/11/23 01:29:21;;;;;;;20.13;13.23;;;7.30;99.90;;;;;;5017823;28;20042;-56
2022/11/23 01:31:46;;;;;;;19.10;13.27;;;8.00;99.90;;;;;;5019019;28;20091;-56
2022/11/23 01:34:13;;;;;;;19.95;13.07;;;8.20;99.90;;;;;;5012992;28;20057;-56
2022/11/23 01:36:39;;;;;;;21.80;12.80;;;9.40;99.90;;;;;;5014768;28;20069;-56
2022/11/23 01:39:05;;;;;;;17.67;13.43;;;7.40;99.90;;;;;;5013693;28;20125;-56
2022/11/23 01:41:34;;;;;;;19.42;13.98;;;7.20;99.90;;;;;;5019624;28;20122;-56
2022/11/23 01:44:00;;;;;;;23.38;14.25;;;7.60;99.90;;;;;;5018654;28;20053;-56
2022/11/23 01:46:26;;;;;;;21.08;14.18;;;7.30;99.90;;;;;;5016706;28;20124;-56
2022/11/23 01:49:10;;;;;;;22.85;13.98;;;8.00;99.90;;;;;;5019711;28;20524;-56
2022/11/23 01:51:40;;;;;;;22.75;14.40;;;7.20;99.90;;;;;;5016241;28;20441;-57
2022/11/23 01:54:20;;;;;;;21.67;14.55;;;7.30;99.90;;;;;;5017436;28;20596;-56
2022/11/23 01:56:54;;;;;;;22.58;14.02;;;7.40;99.90;;;;;;5016636;28;20052;-57
2022/11/23 01:59:22;;;;;;;22.05;14.02;;;7.30;99.90;;;;;;5016184;28;20187;-56
2022/11/23 02:01:47;;;;;;;22.20;14.38;;;9.70;99.90;;;;;;5016753;28;20136;-57
2022/11/23 02:04:24;;;;;;;22.45;15.38;;;7.30;99.90;;;;;;5014730;28;20150;-56
2022/11/23 02:06:51;;;;;;;21.77;15.15;;;8.00;99.90;;;;;;5015837;28;20868;-56
2022/11/23 02:09:18;;;;;;;23.98;14.45;;;8.90;99.90;;;;;;5017421;28;20434;-57
2022/11/23 02:11:43;;;;;;;22.48;14.70;;;8.80;99.90;;;;;;5013880;28;20053;-57
2022/11/23 02:14:09;;;;;;;20.83;15.07;;;7.50;99.90;;;;;;5018890;28;20045;-57
2022/11/23 02:16:36;;;;;;;22.00;15.10;;;8.40;99.90;;;;;;5016277;28;20653;-57
2022/11/23 02:19:05;;;;;;;29.13;14.95;;;8.60;99.90;;;;;;5014823;28;20136;-57
2022/11/23 02:21:31;;;;;;;25.23;15.07;;;7.40;99.90;;;;;;5014935;28;20055;-56
2022/11/23 02:23:59;;;;;;;27.85;15.63;;;7.30;99.90;;;;;;5012777;28;20041;-56
2022/11/23 02:26:28;;;;;;;22.38;15.48;;;7.30;99.90;;;;;;5018080;28;20537;-56
2022/11/23 02:29:05;;;;;;;26.20;15.45;;;7.50;99.90;;;;;;5015645;28;20361;-57
2022/11/23 02:31:31;;;;;;;26.30;15.60;;;9.10;99.90;;;;;;5016737;28;20041;-56
2022/11/23 02:33:57;;;;;;;24.20;16.25;;;7.30;99.90;;;;;;5018062;28;20090;-57
2022/11/23 02:36:41;;;;;;;25.83;16.33;;;9.40;99.90;;;;;;5013242;28;20045;-57
2022/11/23 02:39:31;;;;;;;24.23;16.02;;;7.60;99.90;;;;;;5017656;28;20045;-56
2022/11/23 02:41:58;;;;;;;24.65;16.25;;;7.40;99.90;;;;;;5015657;28;20045;-56
2022/11/23 02:44:54;;;;;;;26.73;18.50;;;7.50;99.90;;;;;;5015757;28;20072;-57
2022/11/23 02:47:20;;;;;;;30.08;16.90;;;7.40;99.90;;;;;;5016869;28;20654;-57
2022/11/23 02:49:47;;;;;;;28.65;16.80;;;7.90;99.90;;;;;;5016306;28;20037;-57
2022/11/23 02:52:14;;;;;;;31.70;16.15;;;8.10;99.90;;;;;;5019105;28;20276;-57
2022/11/23 02:54:40;;;;;;;29.27;17.77;;;7.50;99.90;;;;;;5020172;28;20115;-56
2022/11/23 02:57:06;;;;;;;31.63;18.02;;;9.40;99.90;;;;;;5049171;28;20516;-57
2022/11/23 02:59:32;;;;;;;33.63;18.42;;;9.20;99.90;;;;;;5013149;28;20110;-56
2022/11/23 03:01:59;;;;;;;31.38;17.63;;;7.40;99.90;;;;;;5016435;28;20045;-56
2022/11/23 03:04:25;;;;;;;32.15;18.88;;;7.50;99.90;;;;;;5017395;28;20033;-57
2022/11/23 03:06:50;;;;;;;34.67;19.90;;;8.00;99.90;;;;;;5016763;28;20482;-57
2022/11/23 03:09:16;;;;;;;36.03;19.98;;;8.30;99.90;;;;;;5016276;28;20053;-57
2022/11/23 03:11:42;;;;;;;33.05;19.65;;;7.60;99.90;;;;;;5018810;28;20577;-57
2022/11/23 03:14:08;;;;;;;28.90;19.13;;;9.10;99.90;;;;;;5019828;28;20116;-57
2022/11/23 03:16:33;;;;;;;27.95;19.40;;;7.60;99.90;;;;;;5019249;28;20960;-56
2022/11/23 03:18:59;;;;;;;32.92;20.10;;;7.60;99.90;;;;;;5019620;28;20037;-57
2022/11/23 03:21:25;;;;;;;33.03;20.15;;;7.60;99.90;;;;;;5034258;28;21167;-57
2022/11/23 03:23:51;;;;;;;32.30;19.50;;;7.60;99.90;;;;;;5019059;28;20528;-57
2022/11/23 03:26:16;;;;;;;35.25;19.85;;;7.80;99.90;;;;;;5019122;28;20139;-57
2022/11/23 03:28:42;;;;;;;37.65;20.23;;;8.20;99.90;;;;;;5018564;28;20372;-57
2022/11/23 03:31:08;;;;;;;36.55;21.20;;;9.00;99.90;;;;;;5023593;28;20107;-57
2022/11/23 03:33:34;;;;;;;39.33;21.20;;;8.30;99.90;;;;;;5018795;28;20049;-56
2022/11/23 03:36:00;;;;;;;39.95;21.65;;;9.90;99.90;;;;;;5024196;28;20723;-56
2022/11/23 03:38:26;;;;;;;38.90;20.63;;;7.50;99.90;;;;;;5018465;28;20406;-57
2022/11/23 03:40:52;;;;;;;39.25;22.10;;;7.30;99.90;;;;;;5016173;28;20045;-57
2022/11/23 03:43:18;;;;;;;38.67;21.92;;;7.50;99.90;;;;;;5018283;28;20055;-57
2022/11/23 03:45:44;;;;;;;35.33;21.05;;;7.50;99.90;;;;;;5018401;28;20049;-57
2022/11/23 03:48:10;;;;;;;38.13;22.20;;;7.60;99.90;;;;;;5016039;28;20296;-57
2022/11/23 03:50:36;;;;;;;38.78;22.02;;;7.60;99.90;;;;;;5018770;28;20037;-57
2022/11/23 03:53:02;;;;;;;43.55;24.17;;;7.50;99.90;;;;;;5018030;28;20053;-57
2022/11/23 03:55:28;;;;;;;46.22;23.08;;;9.50;99.90;;;;;;5023256;28;20448;-57
2022/11/23 03:57:54;;;;;;;48.05;24.10;;;7.50;99.90;;;;;;5015173;28;20057;-56
2022/11/23 04:00:20;;;;;;;43.47;24.23;;;7.20;99.90;;;;;;5017843;28;20037;-57
2022/11/23 04:02:46;;;;;;;39.88;22.55;;;7.60;99.90;;;;;;5017032;28;20107;-57
2022/11/23 04:05:12;;;;;;;41.92;23.88;;;7.40;99.90;;;;;;5018469;28;20509;-57
2022/11/23 04:07:38;;;;;;;44.88;24.42;;;8.00;99.90;;;;;;5020122;28;20041;-56
2022/11/23 04:10:04;;;;;;;40.13;21.70;;;9.30;99.90;;;;;;5019156;28;20424;-57
2022/11/23 04:12:30;;;;;;;41.78;23.00;;;7.80;99.90;;;;;;5021166;28;20445;-57
2022/11/23 04:14:55;;;;;;;42.03;24.17;;;9.00;99.90;;;;;;5017907;28;20057;-57
2022/11/23 04:17:21;;;;;;;44.00;24.55;;;9.40;99.90;;;;;;5018743;28;20046;-57
2022/11/23 04:19:47;;;;;;;47.10;24.42;;;7.30;99.90;;;;;;5019395;28;20041;-57
2022/11/23 04:22:12;;;;;;;41.88;25.00;;;8.30;99.90;;;;;;5020752;28;20542;-57
2022/11/23 04:24:38;;;;;;;39.78;25.45;;;7.30;99.90;;;;;;5020297;28;20045;-57
2022/11/23 04:27:04;;;;;;;45.75;25.98;;;7.40;99.90;;;;;;5017421;28;20041;-56
2022/11/23 04:29:29;;;;;;;45.22;24.73;;;7.60;99.90;;;;;;5019802;28;20052;-56
2022/11/23 04:31:55;;;;;;;44.10;25.30;;;9.70;99.90;;;;;;5014622;28;20377;-57
2022/11/23 04:34:21;;;;;;;44.38;26.50;;;8.10;99.90;;;;;;5016324;28;20053;-57
2022/11/23 04:36:46;;;;;;;52.70;26.67;;;7.90;99.90;;;;;;5014987;28;20030;-57
2022/11/23 04:39:12;;;;;;;55.72;27.05;;;8.10;99.90;;;;;;5018623;28;20167;-56
2022/11/23 04:41:38;;;;;;;44.45;25.17;;;7.20;99.90;;;;;;5049866;28;20038;-57
2022/11/23 04:44:05;;;;;;;46.28;28.48;;;9.20;99.90;;;;;;5017384;28;20038;-57
2022/11/23 04:46:31;;;;;;;46.53;27.08;;;8.20;99.90;;;;;;5019017;28;20037;-57
2022/11/23 04:48:57;;;;;;;51.38;27.20;;;9.20;99.90;;;;;;5033542;28;20053;-56
2022/11/23 04:51:22;;;;;;;50.83;28.65;;;9.30;99.90;;;;;;5018802;28;20041;-57
2022/11/23 04:53:48;;;;;;;52.90;27.40;;;8.20;99.90;;;;;;5017563;28;20181;-57
2022/11/23 04:56:14;;;;;;;49.38;28.00;;;7.30;99.90;;;;;;5016327;28;20045;-57
2022/11/23 04:58:40;;;;;;;48.15;28.02;;;8.90;99.90;;;;;;5049030;28;20117;-57
2022/11/23 05:01:06;;;;;;;54.10;29.20;;;8.30;99.90;;;;;;5016747;28;20707;-57
2022/11/23 05:03:33;;;;;;;56.80;28.67;;;9.10;99.90;;;;;;5016677;28;20049;-57
2022/11/23 05:06:00;;;;;;;53.97;28.40;;;7.60;99.90;;;;;;5013782;28;20559;-57
2022/11/23 05:08:27;;;;;;;53.25;28.25;;;7.20;99.90;;;;;;5017970;28;20052;-57
2022/11/23 05:10:52;;;;;;;50.90;28.33;;;9.20;99.90;;;;;;5017985;28;20033;-57
2022/11/23 05:13:18;;;;;;;56.92;28.35;;;7.70;99.90;;;;;;5014925;28;20044;-57
2022/11/23 05:15:44;;;;;;;60.70;31.15;;;7.70;99.90;;;;;;5018486;28;20148;-56
2022/11/23 05:18:10;;;;;;;46.83;28.27;;;7.40;99.90;;;;;;5015209;28;20109;-57
2022/11/23 05:20:36;;;;;;;57.22;29.70;;;8.00;99.90;;;;;;5019057;28;20057;-57
2022/11/23 05:23:02;;;;;;;49.47;29.58;;;7.60;99.90;;;;;;5018964;28;20038;-57
2022/11/23 05:25:28;;;;;;;52.88;29.65;;;9.40;99.90;;;;;;5018127;28;20045;-57
2022/11/23 05:27:53;;;;;;;48.75;28.50;;;7.60;99.90;;;;;;5018309;28;20045;-57
2022/11/23 05:30:19;;;;;;;53.15;29.20;;;8.80;99.90;;;;;;5017480;28;20624;-57
2022/11/23 05:32:45;;;;;;;52.33;28.85;;;7.60;99.90;;;;;;5022017;28;20047;-58
2022/11/23 05:35:11;;;;;;;49.35;28.58;;;9.20;99.90;;;;;;5018314;28;20042;-57
2022/11/23 05:37:38;;;;;;;46.17;28.13;;;9.20;99.90;;;;;;5016750;28;20123;-58
2022/11/23 05:40:04;;;;;;;48.92;30.00;;;9.40;99.90;;;;;;5019472;28;20210;-57
2022/11/23 05:42:30;;;;;;;54.33;29.50;;;7.60;99.90;;;;;;5016646;28;20033;-57
2022/11/23 05:44:56;;;;;;;51.53;30.38;;;7.70;99.90;;;;;;5019972;28;20755;-57
2022/11/23 05:47:22;;;;;;;46.50;28.75;;;8.00;99.90;;;;;;5016927;28;20037;-58
2022/11/23 05:49:49;;;;;;;46.30;28.92;;;7.70;99.90;;;;;;5016709;28;20073;-58
2022/11/23 05:52:15;;;;;;;46.28;29.48;;;7.70;99.90;;;;;;5015306;28;20053;-57
2022/11/23 05:54:41;;;;;;;51.20;29.60;;;7.70;99.90;;;;;;5015009;28;20107;-57
2022/11/23 05:57:07;;;;;;;47.20;28.77;;;7.70;99.90;;;;;;5014923;28;20037;-58
2022/11/23 05:59:32;;;;;;;46.20;27.88;;;9.50;99.90;;;;;;5016707;28;20140;-57
2022/11/23 06:01:58;;;;;;;52.75;28.77;;;7.60;99.90;;;;;;5014908;28;20106;-57
2022/11/23 06:04:24;;;;;;;49.75;27.83;;;8.70;99.90;;;;;;5014049;28;20637;-58
2022/11/23 06:06:50;;;;;;;51.10;29.92;;;7.60;99.90;;;;;;5015538;28;20073;-57
2022/11/23 06:09:15;;;;;;;50.63;27.98;;;8.00;99.90;;;;;;5018005;28;20191;-57
2022/11/23 06:11:43;;;;;;;49.08;29.30;;;7.40;99.90;;;;;;5014675;28;20332;-57
2022/11/23 06:14:09;;;;;;;47.92;29.23;;;9.10;99.90;;;;;;5016378;28;20037;-57
2022/11/23 06:16:34;;;;;;;45.65;28.35;;;7.60;99.90;;;;;;5015129;28;20071;-57
2022/11/23 06:19:00;;;;;;;47.38;27.25;;;8.00;99.90;;;;;;5017269;28;20060;-57
2022/11/23 06:21:26;;;;;;;40.97;27.13;;;7.70;99.90;;;;;;5015317;28;20091;-58
2022/11/23 06:23:52;;;;;;;39.42;26.30;;;8.10;99.90;;;;;;5017133;28;20045;-58
2022/11/23 06:26:17;;;;;;;48.78;26.10;;;7.40;99.90;;;;;;5015340;28;20037;-58
2022/11/23 06:28:43;;;;;;;42.30;26.00;;;7.50;99.90;;;;;;5015667;28;20132;-58
2022/11/23 06:31:09;;;;;;;42.47;25.15;;;7.40;99.90;;;;;;5016024;28;20048;-58
2022/11/23 06:33:35;;;;;;;36.30;23.17;;;8.60;99.90;;;;;;5012142;28;20502;-57
2022/11/23 06:36:02;;;;;;;35.38;25.15;;;9.30;99.90;;;;;;5015710;28;20060;-57
2022/11/23 06:38:28;;;;;;;37.65;23.08;;;7.40;99.90;;;;;;5018487;28;20072;-58
2022/11/23 06:40:59;;;;;;;35.47;22.58;;;7.30;99.90;;;;;;5015452;28;20037;-58
2022/11/23 06:43:25;;;;;;;38.65;22.63;;;7.50;99.90;;;;;;5016514;28;20056;-58
2022/11/23 06:45:51;;;;;;;39.53;23.75;;;7.50;99.90;;;;;;5016052;28;20041;-58
2022/11/23 06:48:16;;;;;;;33.13;21.50;;;8.50;99.90;;;;;;5020502;28;20041;-59
2022/11/23 06:50:42;;;;;;;37.63;21.85;;;7.70;99.90;;;;;;5021133;28;20041;-58
2022/11/23 06:53:11;;;;;;;34.72;19.80;;;7.50;99.90;;;;;;5016570;28;20139;-58
2022/11/23 06:55:37;;;;;;;33.85;21.02;;;7.40;99.90;;;;;;5022254;28;20573;-58
2022/11/23 06:58:03;;;;;;;29.98;19.88;;;8.60;99.90;;;;;;5019924;28;20144;-58
2022/11/23 07:00:28;;;;;;;30.17;20.02;;;8.00;99.90;;;;;;5017932;28;20147;-58
2022/11/23 07:02:55;;;;;;;35.30;20.67;;;7.70;99.90;;;;;;5019175;28;20100;-58
2022/11/23 07:05:22;;;;;;;29.42;19.85;;;7.20;99.90;;;;;;5017493;28;20041;-58
2022/11/23 07:07:48;;;;;;;34.10;20.55;;;7.60;99.90;;;;;;5019726;28;20041;-58
2022/11/23 07:10:14;;;;;;;29.05;18.80;;;8.20;99.90;;;;;;5022401;28;20453;-58
2022/11/23 07:12:39;;;;;;;28.63;19.00;;;7.00;99.90;;;;;;5018092;28;20044;-58
2022/11/23 07:15:07;;;;;;;27.33;17.58;;;7.30;99.90;;;;;;5018213;28;20038;-58
2022/11/23 07:17:37;;;;;;;34.40;16.92;;;7.10;99.90;;;;;;5020338;28;20346;-58
2022/11/23 07:20:03;;;;;;;30.38;17.83;;;7.10;99.90;;;;;;5020755;28;20119;-58
2022/11/23 07:22:28;;;;;;;32.47;16.65;;;7.10;99.90;;;;;;5051576;28;20041;-58
2022/11/23 07:24:54;;;;;;;27.05;15.98;;;7.10;99.90;;;;;;5016844;28;20072;-58
2022/11/23 07:27:20;;;;;;;28.95;15.77;;;7.20;99.90;;;;;;5015945;28;20157;-58
2022/11/23 07:29:45;;;;;;;27.42;15.52;;;7.00;99.90;;;;;;5019371;28;20084;-58
2022/11/23 07:32:13;;;;;;;28.10;14.63;;;7.20;99.90;;;;;;5019766;28;20064;-58
2022/11/23 07:34:39;;;;;;;29.17;15.32;;;7.80;99.90;;;;;;5018961;28;20544;-58
2022/11/23 07:37:06;;;;;;;26.63;14.27;;;7.20;99.90;;;;;;5030688;28;20049;-58
2022/11/23 07:39:31;;;;;;;27.60;13.13;;;7.20;99.90;;;;;;5020904;28;20057;-58
2022/11/23 07:41:57;;;;;;;21.98;12.50;;;7.10;99.90;;;;;;5018703;28;20037;-58
2022/11/23 07:44:23;;;;;;;22.27;12.82;;;6.90;99.90;;;;;;5017907;28;20472;-58
2022/11/23 07:46:52;;;;;;;20.90;12.45;;;7.30;99.90;;;;;;5017662;28;20037;-58
2022/11/23 07:49:17;;;;;;;22.95;12.38;;;8.60;99.90;;;;;;5018343;28;20037;-58
2022/11/23 07:51:43;;;;;;;25.63;12.82;;;7.30;99.90;;;;;;5018318;28;20751;-58
2022/11/23 07:54:09;;;;;;;20.83;11.52;;;7.70;99.90;;;;;;5017359;28;20046;-58
2022/11/23 07:56:34;;;;;;;19.38;11.25;;;7.90;99.90;;;;;;5048308;28;20042;-58
2022/11/23 07:59:00;;;;;;;20.42;11.27;;;7.10;99.90;;;;;;5019476;28;20402;-58
2022/11/23 08:01:26;;;;;;;20.70;11.68;;;7.40;99.90;;;;;;5017759;28;20300;-58
2022/11/23 08:03:51;;;;;;;22.63;12.40;;;8.00;99.90;;;;;;5018673;28;20045;-58
2022/11/23 08:06:17;;;;;;;17.63;11.30;;;7.30;99.90;;;;;;5016350;28;20076;-57
2022/11/23 08:08:43;;;;;;;17.58;9.82;;;8.00;99.90;;;;;;5017294;28;20136;-58
2022/11/23 08:11:13;;;;;;;23.55;10.98;;;7.30;99.90;;;;;;5018511;28;20073;-58
2022/11/23 08:13:39;;;;;;;18.80;9.85;;;8.70;99.90;;;;;;5015841;28;20041;-58
2022/11/23 08:16:05;;;;;;;18.65;11.18;;;9.30;99.90;;;;;;5017485;28;20119;-58
2022/11/23 08:18:31;;;;;;;20.50;11.10;;;7.40;99.90;;;;;;5014804;28;20494;-58
2022/11/23 08:21:00;;;;;;;19.40;10.63;;;7.30;99.90;;;;;;5019695;28;20049;-58
2022/11/23 08:23:26;;;;;;;19.00;10.23;;;7.80;99.90;;;;;;5018502;28;20477;-58
2022/11/23 08:25:51;;;;;;;19.27;9.90;;;7.40;99.90;;;;;;5016035;28;20041;-58
2022/11/23 08:28:17;;;;;;;20.20;9.70;;;7.30;99.90;;;;;;5019179;28;20041;-58
2022/11/23 08:30:43;;;;;;;21.10;10.52;;;8.20;99.90;;;;;;5017160;28;20922;-58
2022/11/23 08:33:11;;;;;;;21.85;9.52;;;8.10;99.90;;;;;;5017754;28;20354;-59
2022/11/23 08:35:38;;;;;;;19.40;9.32;;;9.30;99.90;;;;;;5013779;28;20152;-58
2022/11/23 08:38:05;;;;;;;18.92;9.77;;;7.60;99.90;;;;;;5016150;28;20042;-58
2022/11/23 08:40:31;;;;;;;16.55;9.32;;;8.80;99.90;;;;;;5018081;28;20025;-58
2022/11/23 08:42:57;;;;;;;20.48;9.13;;;8.90;99.90;;;;;;5017374;28;20084;-58
2022/11/23 08:45:22;;;;;;;19.42;8.75;;;9.00;99.90;;;;;;5014658;28;20160;-58
2022/11/23 08:47:49;;;;;;;17.15;9.32;;;8.00;99.90;;;;;;5014084;28;20041;-58
2022/11/23 08:50:16;;;;;;;17.48;8.38;;;7.60;99.90;;;;;;5016364;28;20049;-58
2022/11/23 08:52:41;;;;;;;18.05;7.82;;;7.70;99.90;;;;;;4976585;28;1183504;-59
2022/11/23 08:55:07;;;;;;;17.75;7.95;;;7.70;99.90;;;;;;5019810;28;20506;-58
2022/11/23 08:57:33;;;;;;;22.60;8.20;;;7.80;99.90;;;;;;5017338;28;20108;-59
2022/11/23 08:59:59;;;;;;;17.42;8.15;;;7.70;99.90;;;;;;5016834;28;20064;-58
2022/11/23 09:02:25;;;;;;;18.92;7.47;;;8.10;99.90;;;;;;5018654;28;20581;-59
2022/11/23 09:04:50;;;;;;;16.70;7.70;;;8.70;99.90;;;;;;5018875;28;20139;-58
2022/11/23 09:07:16;;;;;;;14.32;7.10;;;7.90;99.90;;;;;;5018854;28;20049;-58
2022/11/23 09:09:42;;;;;;;16.63;8.50;;;9.00;99.90;;;;;;5015502;28;20121;-58
2022/11/23 09:12:08;;;;;;;17.75;7.63;;;8.80;99.90;;;;;;5016624;28;24154;-59
2022/11/23 09:14:33;;;;;;;20.42;7.55;;;9.50;99.90;;;;;;5019508;28;20048;-58
2022/11/23 09:17:00;;;;;;;13.38;6.63;;;8.00;99.90;;;;;;5017094;28;20037;-59
2022/11/23 09:19:26;;;;;;;18.52;7.63;;;9.10;99.90;;;;;;5016766;28;20048;-59
2022/11/23 09:21:53;;;;;;;15.30;7.22;;;8.10;99.90;;;;;;5017401;28;20040;-59
2022/11/23 09:24:19;;;;;;;17.45;6.63;;;8.10;99.90;;;;;;5017704;28;20040;-59
2022/11/23 09:26:45;;;;;;;21.13;6.45;;;8.70;99.90;;;;;;5016150;28;20033;-59
2022/11/23 09:29:10;;;;;;;13.73;6.10;;;8.40;99.90;;;;;;5021039;28;20731;-59
2022/11/23 09:31:36;;;;;;;22.02;7.13;;;10.30;99.90;;;;;;5018770;28;20052;-59
2022/11/23 09:34:03;;;;;;;21.38;7.15;;;9.50;99.90;;;;;;5018241;28;20038;-59
2022/11/23 09:36:28;;;;;;;16.65;6.43;;;8.50;99.90;;;;;;5019240;28;20974;-60
2022/11/23 09:38:54;;;;;;;14.00;5.50;;;8.50;99.90;;;;;;5017927;28;20037;-59
2022/11/23 09:41:35;;;;;;;16.80;5.20;;;8.40;99.90;;;;;;5018290;28;20064;-59
2022/11/23 09:44:40;;;;;;;16.13;5.45;;;8.40;99.90;;;;;;5019405;28;20037;-59
2022/11/23 09:47:32;;;;;;;13.60;5.10;;;8.40;99.90;;;;;;5016155;28;20048;-59
2022/11/23 09:50:06;;;;;;;14.52;4.63;;;9.90;99.90;;;;;;5017218;28;20506;-59
2022/11/23 09:52:35;;;;;;;16.80;5.22;;;8.50;99.90;;;;;;5015657;28;20709;-58
2022/11/23 09:55:10;;;;;;;15.55;4.55;;;10.00;99.90;;;;;;5019105;28;20045;-59
2022/11/23 09:57:39;;;;;;;14.45;4.22;;;8.50;99.90;;;;;;5027875;28;20041;-59
2022/11/23 10:00:23;;;;;;;14.52;4.35;;;8.70;99.90;;;;;;5016336;28;20619;-59
2022/11/23 10:02:49;;;;;;;17.60;4.68;;;9.30;99.90;;;;;;5016538;28;20506;-59
2022/11/23 10:05:20;;;;;;;11.90;3.42;;;9.70;99.90;;;;;;5017607;28;20098;-59
2022/11/23 10:08:03;;;;;;;16.42;4.40;;;9.10;99.90;;;;;;5015229;28;20071;-59
2022/11/23 10:10:29;;;;;;;13.43;4.88;;;8.30;99.90;;;;;;5015393;28;20049;-59
2022/11/23 10:13:04;;;;;;;16.75;4.07;;;8.40;99.90;;;;;;5017333;28;20037;-59
2022/11/23 10:15:44;;;;;;;16.48;5.00;;;10.60;99.90;;;;;;5014938;28;20038;-59
2022/11/23 10:18:28;;;;;;;15.88;4.40;;;8.30;99.90;;;;;;5014626;28;20046;-59
2022/11/23 10:21:39;;;;;;;18.30;4.40;;;8.50;99.90;;;;;;5016525;28;20037;-59
2022/11/23 10:24:18;;;;;;;16.50;5.03;;;8.50;99.90;;;;;;5017451;28;20041;-59
2022/11/23 10:26:45;;;;;;;15.35;4.95;;;8.40;99.90;;;;;;5017500;28;20103;-59
2022/11/23 10:29:13;;;;;;;13.68;4.78;;;8.40;99.90;;;;;;5015021;28;20049;-59
2022/11/23 10:31:42;;;;;;;17.65;6.07;;;10.30;99.90;;;;;;5014473;28;20049;-59
2022/11/23 10:34:10;;;;;;;20.10;4.88;;;10.40;99.90;;;;;;5014505;28;20052;-59
2022/11/23 10:36:38;;;;;;;16.98;4.75;;;8.50;99.90;;;;;;5013833;28;20494;-58
2022/11/23 10:39:20;;;;;;;18.48;5.95;;;8.30;99.90;;;;;;5017970;28;20596;-59
2022/11/23 10:41:46;;;;;;;23.50;4.90;;;8.70;99.90;;;;;;5013729;28;20446;-59
2022/11/23 10:44:30;;;;;;;17.80;5.35;;;8.50;99.90;;;;;;5018126;28;20051;-59
2022/11/23 10:46:57;;;;;;;30.90;5.38;;;8.70;99.90;;;;;;5017169;28;20049;-59
2022/11/23 10:49:28;;;;;;;17.20;5.00;;;8.60;99.90;;;;;;5016033;28;20033;-59
2022/11/23 10:51:57;;;;;;;19.30;5.15;;;10.70;99.90;;;;;;5017899;28;20117;-59
2022/11/23 10:54:39;;;;;;;21.23;6.18;;;10.00;99.90;;;;;;5017449;28;20045;-59
2022/11/23 10:57:26;;;;;;;19.55;5.45;;;8.50;99.90;;;;;;5014736;28;20127;-59
2022/11/23 11:00:03;;;;;;;19.70;4.90;;;8.60;99.90;;;;;;5016466;28;20528;-59
2022/11/23 11:02:48;;;;;;;16.58;4.28;;;8.80;99.90;;;;;;5017674;28;20044;-60
2022/11/23 11:05:25;;;;;;;16.50;4.25;;;8.60;99.90;;;;;;5016109;28;20480;-59
2022/11/23 11:07:52;;;;;;;15.48;3.72;;;8.50;99.90;;;;;;5013482;28;20547;-60
2022/11/23 11:10:39;;;;;;;17.33;4.57;;;9.20;99.90;;;;;;5014942;28;20045;-59
2022/11/23 11:13:38;;;;;;;17.25;3.88;;;9.50;99.90;;;;;;5016036;28;20045;-59
2022/11/23 11:16:16;;;;;;;16.60;4.00;;;8.80;99.90;;;;;;5015953;28;20119;-59
2022/11/23 11:18:42;;;;;;;13.35;3.75;;;9.10;99.90;;;;;;5013346;28;20040;-60
2022/11/23 11:21:19;;;;;;;15.23;3.47;;;10.30;99.90;;;;;;5015614;28;20046;-60
2022/11/23 11:24:14;;;;;;;13.80;3.65;;;9.40;99.90;;;;;;5014449;28;20831;-59
2022/11/23 11:27:10;;;;;;;15.05;4.22;;;9.70;99.90;;;;;;5042073;28;20048;-59
2022/11/23 11:29:47;;;;;;;20.27;4.63;;;9.70;99.90;;;;;;5016930;28;20132;-59
2022/11/23 11:32:31;;;;;;;16.00;4.35;;;9.60;99.90;;;;;;5019186;28;20044;-59
2022/11/23 11:35:15;;;;;;;24.10;4.45;;;10.50;99.90;;;;;;5017489;28;20322;-59
2022/11/23 11:37:46;;;;;;;14.07;3.33;;;9.40;99.90;;;;;;5019651;28;20052;-59
2022/11/23 11:40:20;;;;;;;16.00;4.32;;;9.40;99.90;;;;;;5017526;28;20060;-59
2022/11/23 11:42:53;;;;;;;16.65;3.22;;;9.30;99.90;;;;;;5017507;28;20394;-60
2022/11/23 11:45:33;;;;;;;14.90;3.15;;;9.90;99.90;;;;;;5018468;28;20398;-59
2022/11/23 11:48:13;;;;;;;23.38;3.75;;;11.10;99.90;;;;;;5020917;28;20120;-59
2022/11/23 11:50:51;;;;;;;14.55;3.00;;;9.40;99.90;;;;;;5019476;28;20037;-60
2022/11/23 11:53:23;;;;;;;16.30;2.75;;;9.60;99.90;;;;;;5017006;28;20058;-59
2022/11/23 11:56:03;;;;;;;15.82;3.30;;;11.30;99.90;;;;;;5018674;28;20073;-59
2022/11/23 11:58:30;;;;;;;15.68;2.63;;;9.60;99.90;;;;;;5016359;28;20037;-59
2022/11/23 12:01:24;;;;;;;14.95;2.72;;;9.50;99.90;;;;;;5021252;28;20057;-60
2022/11/23 12:03:58;;;;;;;19.33;3.03;;;9.60;99.90;;;;;;5017765;28;20953;-60
2022/11/23 12:06:32;;;;;;;15.45;2.45;;;9.50;99.90;;;;;;5016922;28;20085;-60
2022/11/23 12:09:05;;;;;;;15.77;3.38;;;9.60;99.90;;;;;;5018682;28;20506;-59
2022/11/23 12:11:31;;;;;;;19.30;3.50;;;10.00;99.90;;;;;;5018802;28;20046;-60
2022/11/23 12:14:03;;;;;;;18.02;2.80;;;10.90;99.90;;;;;;5022490;28;20045;-60
2022/11/23 12:16:31;;;;;;;16.10;2.75;;;9.60;99.90;;;;;;5017113;28;20037;-59
2022/11/23 12:19:19;;;;;;;15.10;2.35;;;9.50;99.90;;;;;;5022479;28;20392;-60
2022/11/23 12:22:11;;;;;;;15.65;3.35;;;9.70;99.90;;;;;;5019451;28;20044;-60
2022/11/23 12:24:45;;;;;;;11.55;2.60;;;9.90;99.90;;;;;;5020077;28;20049;-60
2022/11/23 12:27:31;;;;;;;16.80;2.60;;;9.80;99.90;;;;;;5018092;28;20049;-60
2022/11/23 12:29:58;;;;;;;15.88;2.58;;;9.80;99.90;;;;;;5019216;28;20049;-59
2022/11/23 12:32:47;;;;;;;15.95;2.78;;;9.70;99.90;;;;;;5018444;28;20516;-60
2022/11/23 12:35:19;;;;;;;15.07;2.95;;;9.90;99.90;;;;;;5017310;28;20051;-60
2022/11/23 12:38:03;;;;;;;17.70;3.30;;;9.70;99.90;;;;;;5019864;28;20064;-60
2022/11/23 12:40:40;;;;;;;13.77;2.95;;;10.00;99.90;;;;;;5016620;28;20398;-59
2022/11/23 12:43:17;;;;;;;14.93;2.55;;;9.80;99.90;;;;;;5018983;28;20060;-60
2022/11/23 12:46:20;;;;;;;14.50;2.67;;;9.80;99.90;;;;;;5017873;28;20420;-60
2022/11/23 12:49:08;;;;;;;12.90;2.38;;;9.80;99.90;;;;;;5017437;28;20064;-59
2022/11/23 12:51:34;;;;;;;19.40;2.83;;;9.80;99.90;;;;;;5014993;28;20033;-60